Time;durP1;ratioP1;P1;durP2;ratioP2;P2;SDS_P1;SDS_P2;PMS_P1;PMS_P2;Temp;Humidity;BMP_temperature;BMP_pressure;BME280_temperature;BME280_humidity;BME280_pressure;Samples;Min_cycle;Max_cycle;Signal;HPM_P1;HPM_P2
2023/06/01 00:01:47;;;;;;;8.70;5.15;;;18.30;68.60;;;;;;5115337;28;20032;-80
2023/06/01 00:04:13;;;;;;;10.18;5.63;;;18.30;68.70;;;;;;5115286;28;20055;-80
2023/06/01 00:06:39;;;;;;;9.43;5.32;;;18.30;68.80;;;;;;5115074;28;20068;-80
2023/06/01 00:09:05;;;;;;;9.82;5.88;;;18.20;68.90;;;;;;5116048;28;20050;-80
2023/06/01 00:11:30;;;;;;;10.07;5.70;;;18.20;69.00;;;;;;5114973;28;20024;-80
2023/06/01 00:13:56;;;;;;;15.20;5.60;;;18.10;69.00;;;;;;5115963;28;20031;-80
2023/06/01 00:16:22;;;;;;;11.27;5.72;;;18.10;69.10;;;;;;5115734;28;20507;-79
2023/06/01 00:18:48;;;;;;;9.05;5.35;;;18.10;69.10;;;;;;5114886;28;20020;-80
2023/06/01 00:21:14;;;;;;;10.15;5.57;;;18.00;69.10;;;;;;5115894;28;20051;-80
2023/06/01 00:23:40;;;;;;;11.45;5.68;;;18.00;69.20;;;;;;5097977;28;20025;-80
2023/06/01 00:26:07;;;;;;;12.85;6.00;;;17.90;69.20;;;;;;5097951;28;20031;-80
2023/06/01 00:28:33;;;;;;;10.02;5.90;;;17.90;69.20;;;;;;5115715;28;20463;-79
2023/06/01 00:30:59;;;;;;;12.52;5.70;;;17.90;69.30;;;;;;5114603;28;20028;-80
2023/06/01 00:33:25;;;;;;;9.70;5.50;;;17.80;69.30;;;;;;5097703;28;20105;-79
2023/06/01 00:35:51;;;;;;;10.80;5.45;;;17.80;69.40;;;;;;5114596;28;20050;-80
2023/06/01 00:38:16;;;;;;;10.93;5.53;;;17.70;69.60;;;;;;5115475;28;20084;-80
2023/06/01 00:40:43;;;;;;;10.20;5.30;;;17.60;69.80;;;;;;5115420;28;20039;-80
2023/06/01 00:43:09;;;;;;;10.30;5.70;;;17.60;69.90;;;;;;5097579;28;20046;-80
2023/06/01 00:45:35;;;;;;;9.88;5.28;;;17.60;69.90;;;;;;5114391;28;20087;-80
2023/06/01 00:48:01;;;;;;;12.82;5.45;;;17.50;70.00;;;;;;5115285;28;20025;-80
2023/06/01 00:50:27;;;;;;;9.98;5.32;;;17.50;70.00;;;;;;5114282;28;20024;-80
2023/06/01 00:52:53;;;;;;;10.50;5.30;;;17.40;70.00;;;;;;5097296;28;20123;-80
2023/06/01 00:55:20;;;;;;;11.93;5.10;;;17.40;70.00;;;;;;5114057;28;20020;-80
2023/06/01 00:57:48;;;;;;;12.35;4.82;;;17.40;70.00;;;;;;5114130;28;20024;-80
2023/06/01 01:00:14;;;;;;;8.65;4.85;;;17.30;69.90;;;;;;5115091;28;20052;-81
2023/06/01 01:02:41;;;;;;;10.18;4.80;;;17.30;69.90;;;;;;5113933;28;20035;-80
2023/06/01 01:05:11;;;;;;;10.82;4.90;;;17.30;70.00;;;;;;5113963;28;20118;-80
2023/06/01 01:08:24;;;;;;;10.15;4.70;;;17.30;69.90;;;;;;5114872;28;20070;-80
2023/06/01 01:10:55;;;;;;;;;;;17.20;69.90;;;;;;5079238;28;20046;-80
2023/06/01 01:13:29;;;;;;;9.13;5.00;;;17.10;70.00;;;;;;5114877;28;20339;-80
2023/06/01 01:16:07;;;;;;;10.75;5.15;;;16.90;70.40;;;;;;5113769;28;20024;-79
2023/06/01 01:18:57;;;;;;;9.70;4.82;;;16.90;70.50;;;;;;5114727;28;20032;-80
2023/06/01 01:21:29;;;;;;;10.05;4.75;;;16.90;70.80;;;;;;5114740;28;20083;-80
2023/06/01 01:24:32;;;;;;;10.68;5.38;;;16.80;71.00;;;;;;5113659;28;20020;-80
2023/06/01 01:27:26;;;;;;;14.50;5.38;;;16.80;70.80;;;;;;5113488;28;20039;-80
2023/06/01 01:29:57;;;;;;;10.82;5.38;;;16.70;71.20;;;;;;5113581;28;20016;-79
2023/06/01 01:32:25;;;;;;;10.00;4.83;;;16.60;71.30;;;;;;5114523;28;20108;-80
2023/06/01 01:34:52;;;;;;;10.45;5.60;;;16.50;71.30;;;;;;5114298;28;20048;-80
2023/06/01 01:37:17;;;;;;;9.38;5.28;;;16.50;71.50;;;;;;5113460;28;20024;-80
2023/06/01 01:39:44;;;;;;;10.32;4.97;;;16.50;71.50;;;;;;5113265;28;20028;-80
2023/06/01 01:42:10;;;;;;;9.98;4.95;;;16.50;71.30;;;;;;5113404;28;20091;-80
2023/06/01 01:44:35;;;;;;;9.63;4.72;;;16.50;71.50;;;;;;5114335;28;20040;-80
2023/06/01 01:47:12;;;;;;;9.38;5.07;;;16.40;71.60;;;;;;5114109;28;20020;-79
2023/06/01 01:49:44;;;;;;;11.20;4.97;;;16.40;71.60;;;;;;5114147;28;20048;-80
2023/06/01 01:52:17;;;;;;;9.05;5.10;;;16.40;71.60;;;;;;5113127;28;20083;-80
2023/06/01 01:54:46;;;;;;;12.90;5.70;;;16.30;71.90;;;;;;5114115;28;20024;-79
2023/06/01 01:57:16;;;;;;;11.18;4.90;;;16.30;72.10;;;;;;5114001;28;20024;-79
2023/06/01 01:59:43;;;;;;;10.20;5.57;;;16.30;72.00;;;;;;5113114;28;20047;-79
2023/06/01 02:02:09;;;;;;;10.07;5.25;;;16.20;72.00;;;;;;5114038;28;20035;-80
2023/06/01 02:04:42;;;;;;;12.10;5.90;;;16.30;72.20;;;;;;5112993;28;20031;-79
2023/06/01 02:07:08;;;;;;;9.35;5.10;;;16.30;72.10;;;;;;5112899;28;20012;-79
2023/06/01 02:09:35;;;;;;;10.13;5.35;;;16.30;72.10;;;;;;5112962;28;20025;-79
2023/06/01 02:12:01;;;;;;;9.70;5.70;;;16.30;72.10;;;;;;5112995;28;20075;-79
2023/06/01 02:14:27;;;;;;;11.18;6.03;;;16.20;72.20;;;;;;5112806;28;20099;-79
2023/06/01 02:16:53;;;;;;;12.65;5.75;;;16.20;72.30;;;;;;5112387;28;20067;-79
2023/06/01 02:19:20;;;;;;;12.05;5.75;;;16.20;72.20;;;;;;5112898;28;20028;-79
2023/06/01 02:21:45;;;;;;;11.45;5.95;;;16.20;72.30;;;;;;5113733;28;20035;-79
2023/06/01 02:24:12;;;;;;;12.90;5.30;;;16.10;72.40;;;;;;5112214;28;20032;-79
2023/06/01 02:26:38;;;;;;;12.07;6.30;;;16.10;72.40;;;;;;5113539;28;20027;-79
2023/06/01 02:29:06;;;;;;;12.02;6.15;;;16.20;72.40;;;;;;5113601;28;20088;-79
2023/06/01 02:31:35;;;;;;;10.75;6.55;;;16.10;72.50;;;;;;5112560;28;20046;-79
2023/06/01 02:34:01;;;;;;;13.48;6.38;;;16.10;72.60;;;;;;5112606;28;20031;-80
2023/06/01 02:36:28;;;;;;;12.10;6.53;;;16.00;72.90;;;;;;5112590;28;20476;-79
2023/06/01 02:38:57;;;;;;;9.48;6.38;;;15.90;73.00;;;;;;5112476;28;20043;-79
2023/06/01 02:41:23;;;;;;;10.63;6.05;;;15.90;72.90;;;;;;5112466;28;20032;-79
2023/06/01 02:43:50;;;;;;;11.35;6.07;;;16.00;72.90;;;;;;5112584;28;20084;-79
2023/06/01 02:46:17;;;;;;;11.48;7.22;;;16.00;72.90;;;;;;5113343;28;20507;-80
2023/06/01 02:48:43;;;;;;;13.63;6.47;;;16.00;72.90;;;;;;5112667;28;20027;-79
2023/06/01 02:51:08;;;;;;;12.90;6.63;;;16.00;73.30;;;;;;5113399;28;20029;-79
2023/06/01 02:53:35;;;;;;;14.82;7.20;;;15.90;73.20;;;;;;5112476;28;20038;-79
2023/06/01 02:56:00;;;;;;;11.48;6.22;;;16.00;73.30;;;;;;5095619;28;20029;-81
2023/06/01 02:58:29;;;;;;;11.93;6.90;;;15.90;74.10;;;;;;5113274;28;20024;-79
2023/06/01 03:00:55;;;;;;;10.95;6.20;;;15.80;73.30;;;;;;5112336;28;20028;-80
2023/06/01 03:03:21;;;;;;;11.32;6.38;;;15.80;73.40;;;;;;5112331;28;20028;-79
2023/06/01 03:05:47;;;;;;;12.88;6.38;;;15.80;73.20;;;;;;5112278;28;20027;-79
2023/06/01 03:08:13;;;;;;;12.05;7.25;;;15.80;73.60;;;;;;5113238;28;20023;-79
2023/06/01 03:10:39;;;;;;;13.07;6.90;;;15.80;73.70;;;;;;5112188;28;20043;-79
2023/06/01 03:13:05;;;;;;;13.32;7.07;;;15.80;73.50;;;;;;5112194;28;20066;-79
2023/06/01 03:15:30;;;;;;;13.07;7.20;;;15.80;73.40;;;;;;5113144;28;20453;-80
2023/06/01 03:17:56;;;;;;;16.73;7.88;;;15.80;73.40;;;;;;5112004;28;20055;-79
2023/06/01 03:20:22;;;;;;;11.50;7.10;;;15.80;73.50;;;;;;5112254;28;20049;-80
2023/06/01 03:22:48;;;;;;;12.05;6.78;;;15.80;73.60;;;;;;5113082;28;20066;-79
2023/06/01 03:25:13;;;;;;;12.82;6.88;;;15.80;73.40;;;;;;5113053;28;20032;-80
2023/06/01 03:27:40;;;;;;;12.90;6.28;;;15.80;73.30;;;;;;5113026;28;20032;-80
2023/06/01 03:30:10;;;;;;;11.30;6.68;;;15.80;73.40;;;;;;5113034;28;20020;-79
2023/06/01 03:32:40;;;;;;;12.10;5.93;;;15.80;73.40;;;;;;5113143;28;20092;-80
2023/06/01 03:35:08;;;;;;;11.05;6.03;;;15.80;73.50;;;;;;5095255;28;20058;-79
2023/06/01 03:37:46;;;;;;;11.55;5.95;;;15.80;73.60;;;;;;5115699;28;20028;-80
2023/06/01 03:40:12;;;;;;;14.75;5.75;;;15.80;73.40;;;;;;5116844;28;20024;-79
2023/06/01 03:42:42;;;;;;;13.75;6.47;;;15.70;73.10;;;;;;5116743;28;20028;-79
2023/06/01 03:45:09;;;;;;;15.38;6.70;;;15.70;73.20;;;;;;5115463;28;20545;-79
2023/06/01 03:47:35;;;;;;;11.02;5.70;;;15.60;73.30;;;;;;5116459;28;20028;-80
2023/06/01 03:50:01;;;;;;;13.45;6.10;;;15.60;73.30;;;;;;5098593;28;20091;-79
2023/06/01 03:52:28;;;;;;;11.05;5.72;;;15.60;73.50;;;;;;5115409;28;20020;-79
2023/06/01 03:54:55;;;;;;;10.50;6.20;;;15.60;73.50;;;;;;5115539;28;20036;-79
2023/06/01 03:57:21;;;;;;;12.73;6.00;;;15.60;73.40;;;;;;5115343;28;20057;-79
2023/06/01 03:59:47;;;;;;;12.30;6.75;;;15.70;73.50;;;;;;5098493;28;20048;-79
2023/06/01 04:02:13;;;;;;;10.60;6.75;;;15.70;73.40;;;;;;5116361;28;20113;-80
2023/06/01 04:04:45;;;;;;;12.80;6.63;;;15.60;73.50;;;;;;5115103;28;20028;-79
2023/06/01 04:07:14;;;;;;;9.93;6.32;;;15.60;73.60;;;;;;5116314;28;20028;-79
2023/06/01 04:09:42;;;;;;;12.07;6.72;;;15.60;73.40;;;;;;5115060;28;20047;-79
2023/06/01 04:12:10;;;;;;;10.57;6.82;;;15.60;73.30;;;;;;5115009;28;20084;-79
2023/06/01 04:14:36;;;;;;;13.23;6.95;;;15.60;73.40;;;;;;5116007;28;20027;-80
2023/06/01 04:17:02;;;;;;;10.68;5.72;;;15.60;73.90;;;;;;5115749;28;20048;-79
2023/06/01 04:19:27;;;;;;;15.45;6.43;;;15.50;74.10;;;;;;5114934;28;20040;-79
2023/06/01 04:21:53;;;;;;;11.13;6.75;;;15.50;73.90;;;;;;5115826;28;20036;-79
2023/06/01 04:24:18;;;;;;;16.23;7.35;;;15.50;73.80;;;;;;5115776;28;20028;-80
2023/06/01 04:26:45;;;;;;;13.40;6.90;;;15.60;74.10;;;;;;5114736;28;20036;-80
2023/06/01 04:29:11;;;;;;;12.95;6.50;;;15.60;73.90;;;;;;5115724;28;20065;-79
2023/06/01 04:31:38;;;;;;;14.85;7.03;;;15.60;73.70;;;;;;5097868;28;20020;-79
2023/06/01 04:34:05;;;;;;;12.30;7.10;;;15.60;73.70;;;;;;5114447;28;20017;-79
2023/06/01 04:36:37;;;;;;;12.38;6.78;;;15.60;73.70;;;;;;5114670;28;20031;-78
2023/06/01 04:39:04;;;;;;;12.45;6.75;;;15.60;73.70;;;;;;5114497;28;20103;-79
2023/06/01 04:41:30;;;;;;;13.38;7.20;;;15.60;73.70;;;;;;5115474;28;20023;-80
2023/06/01 04:43:58;;;;;;;13.45;6.53;;;15.60;73.80;;;;;;5114480;28;20027;-81
2023/06/01 04:46:26;;;;;;;14.10;6.85;;;15.60;73.90;;;;;;5114948;28;20024;-81
2023/06/01 04:48:52;;;;;;;10.93;6.72;;;15.60;74.00;;;;;;5114326;28;20020;-81
2023/06/01 04:51:23;;;;;;;11.18;6.85;;;15.70;73.90;;;;;;5114237;28;20096;-81
2023/06/01 04:53:51;;;;;;;11.57;6.88;;;15.60;74.10;;;;;;5115264;28;20026;-81
2023/06/01 04:56:24;;;;;;;16.17;6.88;;;15.60;74.10;;;;;;5115152;28;20096;-80
2023/06/01 04:58:51;;;;;;;11.05;6.55;;;15.50;74.10;;;;;;5115111;28;20020;-79
2023/06/01 05:01:17;;;;;;;13.20;6.80;;;15.60;74.20;;;;;;5114162;28;20032;-80
2023/06/01 05:03:43;;;;;;;12.40;6.72;;;15.60;74.10;;;;;;5114988;28;20027;-80
2023/06/01 05:06:13;;;;;;;11.57;7.22;;;15.60;74.00;;;;;;5113975;28;20028;-80
2023/06/01 05:08:42;;;;;;;14.60;7.00;;;15.60;74.00;;;;;;5113885;28;20077;-79
2023/06/01 05:11:09;;;;;;;13.20;7.25;;;15.60;74.10;;;;;;5113935;28;20097;-79
2023/06/01 05:13:39;;;;;;;13.20;6.95;;;15.60;74.00;;;;;;5114865;28;20016;-79
2023/06/01 05:16:06;;;;;;;13.00;6.15;;;15.60;74.20;;;;;;5096686;28;20035;-79
2023/06/01 05:18:33;;;;;;;16.17;7.40;;;15.60;74.30;;;;;;5114806;28;20028;-80
2023/06/01 05:20:58;;;;;;;12.43;6.90;;;15.60;74.20;;;;;;5096865;28;20054;-79
2023/06/01 05:23:25;;;;;;;14.55;7.13;;;15.70;74.60;;;;;;5113748;28;20047;-78
2023/06/01 05:25:51;;;;;;;13.05;6.55;;;15.70;74.20;;;;;;5114509;28;20043;-79
2023/06/01 05:28:17;;;;;;;15.43;6.45;;;15.70;74.10;;;;;;5114553;28;20052;-79
2023/06/01 05:30:43;;;;;;;15.45;7.18;;;15.70;73.90;;;;;;5113430;28;20024;-80
2023/06/01 05:33:08;;;;;;;13.52;6.68;;;15.70;74.00;;;;;;5113352;28;20024;-79
2023/06/01 05:35:34;;;;;;;17.65;6.60;;;15.70;74.10;;;;;;5114425;28;20032;-79
2023/06/01 05:38:00;;;;;;;15.77;7.63;;;15.70;74.10;;;;;;5113387;28;20092;-79
2023/06/01 05:40:26;;;;;;;12.45;6.28;;;15.60;74.30;;;;;;5113415;28;20031;-78
2023/06/01 05:42:51;;;;;;;13.40;6.65;;;15.60;74.50;;;;;;5113387;28;20031;-79
2023/06/01 05:45:17;;;;;;;14.40;6.63;;;15.70;74.60;;;;;;5096275;28;20028;-79
2023/06/01 05:47:43;;;;;;;12.77;6.13;;;15.60;74.20;;;;;;5114098;28;20028;-79
2023/06/01 05:50:09;;;;;;;10.60;6.10;;;15.60;74.10;;;;;;5113174;28;20030;-79
2023/06/01 05:52:35;;;;;;;9.90;5.70;;;15.60;74.00;;;;;;5113096;28;20043;-79
2023/06/01 05:55:00;;;;;;;12.73;5.95;;;15.60;74.00;;;;;;5096205;28;20016;-80
2023/06/01 05:57:26;;;;;;;10.13;5.82;;;15.60;74.20;;;;;;5113984;28;20101;-79
2023/06/01 05:59:53;;;;;;;11.02;5.88;;;15.70;73.80;;;;;;5095463;28;20091;-80
2023/06/01 06:02:19;;;;;;;12.55;6.40;;;15.60;73.70;;;;;;5113132;28;20043;-80
2023/06/01 06:04:45;;;;;;;9.02;5.50;;;15.60;73.60;;;;;;5095998;28;20027;-80
2023/06/01 06:07:11;;;;;;;12.13;6.15;;;15.60;74.00;;;;;;5113806;28;20048;-80
2023/06/01 06:09:36;;;;;;;11.38;6.22;;;15.60;73.80;;;;;;5113854;28;20024;-79
2023/06/01 06:12:02;;;;;;;9.00;5.50;;;15.60;73.90;;;;;;5112737;28;20027;-79
2023/06/01 06:14:28;;;;;;;11.40;5.47;;;15.60;73.90;;;;;;5112884;28;20020;-80
2023/06/01 06:16:54;;;;;;;15.95;5.65;;;15.60;74.20;;;;;;5113546;28;20482;-79
2023/06/01 06:19:20;;;;;;;10.00;5.18;;;15.60;74.40;;;;;;5112732;28;20048;-80
2023/06/01 06:21:46;;;;;;;10.73;5.53;;;15.60;74.70;;;;;;5112850;28;20036;-80
2023/06/01 06:24:12;;;;;;;12.50;5.32;;;15.60;74.70;;;;;;5112762;28;20028;-79
2023/06/01 06:26:37;;;;;;;15.30;5.72;;;15.70;74.60;;;;;;5113562;28;20024;-80
2023/06/01 06:29:03;;;;;;;10.98;5.32;;;15.70;74.50;;;;;;5113626;28;20030;-80
2023/06/01 06:31:28;;;;;;;21.75;6.03;;;15.70;74.30;;;;;;5112828;28;20088;-79
2023/06/01 06:33:55;;;;;;;9.68;4.88;;;15.70;74.00;;;;;;5095622;28;20024;-79
2023/06/01 06:36:20;;;;;;;12.55;5.38;;;15.70;73.80;;;;;;5112579;28;20112;-79
2023/06/01 06:38:46;;;;;;;10.45;5.50;;;15.80;73.80;;;;;;5112456;28;20024;-80
2023/06/01 06:41:12;;;;;;;11.98;5.45;;;15.80;73.90;;;;;;5113478;28;20088;-79
2023/06/01 06:43:38;;;;;;;10.80;5.20;;;15.80;74.30;;;;;;5095641;28;20032;-78
2023/06/01 06:46:03;;;;;;;10.05;5.50;;;15.80;74.40;;;;;;5113363;28;20024;-78
2023/06/01 06:48:29;;;;;;;11.88;5.38;;;15.80;74.40;;;;;;5112557;28;20032;-78
2023/06/01 06:50:55;;;;;;;11.07;5.35;;;15.80;74.80;;;;;;5112543;28;20020;-79
2023/06/01 06:53:21;;;;;;;10.23;5.57;;;15.90;74.80;;;;;;5112415;28;20079;-80
2023/06/01 06:55:47;;;;;;;14.68;5.78;;;15.90;74.50;;;;;;5112368;28;20028;-79
2023/06/01 06:58:13;;;;;;;10.73;5.57;;;16.00;73.60;;;;;;5112409;28;20030;-79
2023/06/01 07:00:40;;;;;;;10.15;5.40;;;16.00;73.40;;;;;;5112374;28;20410;-79
2023/06/01 07:03:06;;;;;;;14.35;5.90;;;16.00;73.30;;;;;;5112378;28;20024;-81
2023/06/01 07:05:32;;;;;;;11.75;5.65;;;16.00;72.80;;;;;;5112299;28;20019;-81
2023/06/01 07:07:58;;;;;;;12.75;4.90;;;16.00;73.00;;;;;;5113144;28;20020;-80
2023/06/01 07:10:24;;;;;;;13.18;5.75;;;16.00;72.90;;;;;;5114198;28;20028;-79
2023/06/01 07:12:50;;;;;;;11.20;5.25;;;16.00;72.70;;;;;;5116096;28;20024;-79
2023/06/01 07:15:16;;;;;;;15.43;5.40;;;16.00;73.30;;;;;;5116176;28;20050;-80
2023/06/01 07:17:42;;;;;;;14.57;5.90;;;16.00;73.30;;;;;;5115701;28;20060;-80
2023/06/01 07:20:11;;;;;;;10.73;5.68;;;16.00;73.20;;;;;;5116156;28;20036;-80
2023/06/01 07:22:37;;;;;;;13.73;5.68;;;16.00;73.40;;;;;;5117089;28;20070;-79
2023/06/01 07:25:05;;;;;;;12.68;5.13;;;16.10;73.40;;;;;;5116091;28;20429;-79
2023/06/01 07:27:31;;;;;;;12.13;5.30;;;16.20;73.20;;;;;;5115923;28;20056;-79
2023/06/01 07:29:57;;;;;;;12.93;5.30;;;16.20;72.90;;;;;;5115953;28;20028;-79
2023/06/01 07:32:23;;;;;;;10.30;4.70;;;16.20;72.10;;;;;;5098849;28;20024;-79
2023/06/01 07:34:49;;;;;;;12.60;5.20;;;16.10;72.10;;;;;;5116724;28;20032;-80
2023/06/01 07:37:15;;;;;;;11.30;5.20;;;16.10;72.40;;;;;;5116750;28;20024;-79
2023/06/01 07:39:41;;;;;;;10.13;5.22;;;16.10;72.40;;;;;;5115624;28;20099;-80
2023/06/01 07:42:07;;;;;;;12.75;5.47;;;16.10;72.10;;;;;;5116678;28;20032;-80
2023/06/01 07:44:33;;;;;;;11.52;5.57;;;16.10;71.90;;;;;;5098755;28;20032;-79
2023/06/01 07:46:58;;;;;;;11.35;5.47;;;16.10;71.80;;;;;;5115526;28;20087;-79
2023/06/01 07:49:24;;;;;;;10.50;5.03;;;16.10;72.00;;;;;;5115573;28;20020;-79
2023/06/01 07:51:51;;;;;;;9.23;5.10;;;16.20;72.20;;;;;;5115563;28;20495;-79
2023/06/01 07:54:17;;;;;;;10.80;5.60;;;16.30;72.60;;;;;;5116404;28;20024;-80
2023/06/01 07:56:43;;;;;;;11.43;5.53;;;16.40;72.70;;;;;;5115450;28;20029;-80
2023/06/01 07:59:09;;;;;;;10.75;5.57;;;16.50;72.40;;;;;;5115487;28;20032;-80
2023/06/01 08:01:34;;;;;;;12.85;6.00;;;16.60;72.30;;;;;;5116389;28;20028;-80
2023/06/01 08:04:01;;;;;;;13.40;5.68;;;16.60;71.80;;;;;;5116202;28;20032;-80
2023/06/01 08:06:27;;;;;;;12.30;5.35;;;16.70;73.00;;;;;;5115342;28;20031;-80
2023/06/01 08:08:53;;;;;;;12.73;4.97;;;16.80;71.50;;;;;;5115132;28;20028;-80
2023/06/01 08:11:19;;;;;;;11.40;5.70;;;16.80;71.50;;;;;;5098209;28;20024;-80
2023/06/01 08:13:47;;;;;;;13.38;5.40;;;16.90;71.70;;;;;;5098232;28;20017;-80
2023/06/01 08:16:13;;;;;;;10.02;5.38;;;17.00;71.90;;;;;;5114972;28;20031;-79
2023/06/01 08:18:39;;;;;;;12.80;5.70;;;17.00;71.70;;;;;;5115637;28;20040;-79
2023/06/01 08:21:05;;;;;;;11.73;5.50;;;17.10;71.60;;;;;;5114342;28;20035;-79
2023/06/01 08:23:31;;;;;;;11.18;5.72;;;17.10;71.00;;;;;;5114738;28;20058;-79
2023/06/01 08:25:56;;;;;;;13.43;5.93;;;17.10;70.70;;;;;;5115707;28;20028;-79
2023/06/01 08:28:22;;;;;;;11.65;5.35;;;17.20;70.40;;;;;;5114864;28;20107;-79
2023/06/01 08:30:48;;;;;;;11.15;5.72;;;17.20;70.30;;;;;;5114738;28;20020;-79
2023/06/01 08:33:15;;;;;;;10.45;5.35;;;17.20;69.80;;;;;;5115704;28;20020;-79
2023/06/01 08:35:40;;;;;;;11.50;5.25;;;17.20;70.00;;;;;;5097973;28;20020;-79
2023/06/01 08:38:06;;;;;;;12.02;6.00;;;17.30;69.80;;;;;;5097712;28;20131;-78
2023/06/01 08:40:32;;;;;;;13.57;6.07;;;17.30;69.70;;;;;;5115510;28;20043;-79
2023/06/01 08:43:05;;;;;;;13.07;5.43;;;17.40;69.10;;;;;;5114542;28;20024;-80
2023/06/01 08:45:32;;;;;;;12.52;6.10;;;17.40;68.90;;;;;;5114501;28;20403;-79
2023/06/01 08:47:58;;;;;;;13.13;6.00;;;17.40;69.20;;;;;;5115262;28;20114;-79
2023/06/01 08:50:26;;;;;;;11.60;5.60;;;17.50;69.40;;;;;;5115349;28;20020;-80
2023/06/01 08:52:56;;;;;;;9.80;5.70;;;17.50;69.30;;;;;;5114451;28;20028;-79
2023/06/01 08:55:22;;;;;;;14.27;5.55;;;17.60;69.10;;;;;;5114284;28;20021;-80
2023/06/01 08:57:49;;;;;;;11.00;5.40;;;17.70;69.20;;;;;;5115177;28;20044;-79
2023/06/01 09:00:17;;;;;;;13.30;6.18;;;17.70;68.80;;;;;;5115110;28;20058;-79
2023/06/01 09:02:43;;;;;;;12.20;6.47;;;17.80;67.80;;;;;;5115049;28;20020;-79
2023/06/01 09:05:11;;;;;;;12.07;5.88;;;17.80;68.30;;;;;;5115005;28;20076;-79
2023/06/01 09:07:36;;;;;;;10.77;5.70;;;17.80;68.70;;;;;;5097173;28;20020;-79
2023/06/01 09:10:02;;;;;;;11.40;5.82;;;17.90;68.60;;;;;;5113969;28;20083;-79
2023/06/01 09:12:29;;;;;;;12.90;5.38;;;18.00;68.70;;;;;;5114088;28;20022;-80
2023/06/01 09:15:11;;;;;;;10.07;5.78;;;18.10;67.60;;;;;;5113872;28;20017;-79
2023/06/01 09:17:39;;;;;;;11.88;5.40;;;18.10;68.10;;;;;;5114603;28;20052;-80
2023/06/01 09:20:06;;;;;;;10.80;5.18;;;18.20;67.80;;;;;;5113745;28;20030;-79
2023/06/01 09:22:45;;;;;;;10.68;5.25;;;18.30;67.60;;;;;;5113695;28;20036;-79
2023/06/01 09:25:13;;;;;;;12.02;5.88;;;18.40;67.20;;;;;;5113719;28;20031;-79
2023/06/01 09:27:46;;;;;;;13.85;5.57;;;18.50;67.00;;;;;;5114498;28;20032;-79
2023/06/01 09:30:12;;;;;;;12.63;5.63;;;18.50;66.20;;;;;;5114598;28;20047;-79
2023/06/01 09:32:38;;;;;;;11.25;5.78;;;18.50;66.50;;;;;;5096301;28;20016;-80
2023/06/01 09:35:07;;;;;;;12.20;5.65;;;18.50;66.90;;;;;;5113817;28;20024;-79
2023/06/01 09:37:33;;;;;;;13.88;5.88;;;18.60;67.70;;;;;;5113549;28;20043;-80
2023/06/01 09:39:58;;;;;;;13.43;5.65;;;18.70;66.30;;;;;;5113333;28;20024;-80
2023/06/01 09:42:34;;;;;;;9.93;5.93;;;18.70;66.30;;;;;;5114467;28;20035;-80
2023/06/01 09:45:21;;;;;;;12.25;6.40;;;18.80;65.10;;;;;;5114267;28;20096;-80
2023/06/01 09:47:48;;;;;;;15.25;5.70;;;18.80;65.30;;;;;;5114198;28;20038;-81
2023/06/01 09:50:33;;;;;;;12.32;6.32;;;18.80;65.20;;;;;;5114166;28;20083;-80
2023/06/01 09:52:59;;;;;;;12.60;5.85;;;18.80;65.30;;;;;;5113265;28;20074;-81
2023/06/01 09:55:25;;;;;;;12.55;5.95;;;18.90;64.90;;;;;;5113195;28;20023;-80
2023/06/01 09:57:51;;;;;;;11.35;5.72;;;18.90;65.40;;;;;;5114077;28;20036;-81
2023/06/01 10:00:24;;;;;;;11.52;5.93;;;19.00;64.80;;;;;;5114035;28;20032;-80
2023/06/01 10:02:52;;;;;;;11.43;5.68;;;19.10;65.40;;;;;;5113078;28;20027;-80
2023/06/01 10:05:17;;;;;;;10.18;5.45;;;19.10;65.30;;;;;;5113081;28;20024;-80
2023/06/01 10:07:45;;;;;;;12.27;5.68;;;19.20;65.30;;;;;;5113839;28;20069;-80
2023/06/01 10:10:14;;;;;;;13.45;6.00;;;19.20;64.30;;;;;;5113857;28;20024;-79
2023/06/01 10:12:40;;;;;;;11.15;6.22;;;19.30;64.30;;;;;;5113811;28;20371;-80
2023/06/01 10:15:07;;;;;;;11.27;6.18;;;19.30;64.10;;;;;;5113943;28;20482;-80
2023/06/01 10:17:34;;;;;;;10.75;5.65;;;19.40;64.30;;;;;;5112635;28;20040;-81
2023/06/01 10:20:02;;;;;;;11.38;5.75;;;19.50;63.90;;;;;;5112837;28;20046;-81
2023/06/01 10:22:29;;;;;;;10.15;5.70;;;19.60;63.10;;;;;;5112744;28;20024;-81
2023/06/01 10:25:00;;;;;;;12.85;5.70;;;19.60;63.30;;;;;;5113672;28;20379;-81
2023/06/01 10:27:40;;;;;;;13.32;6.05;;;19.70;63.60;;;;;;5113737;28;20024;-80
2023/06/01 10:30:09;;;;;;;12.60;6.38;;;19.80;63.00;;;;;;5113686;28;20046;-79
2023/06/01 10:32:37;;;;;;;14.18;5.75;;;19.90;62.40;;;;;;5113755;28;20025;-80
2023/06/01 10:35:10;;;;;;;12.65;5.70;;;19.90;62.90;;;;;;5113542;28;20046;-80
2023/06/01 10:37:35;;;;;;;10.45;5.25;;;19.90;63.00;;;;;;5112524;28;20028;-80
2023/06/01 10:40:16;;;;;;;9.05;5.35;;;20.00;62.10;;;;;;5113533;28;20058;-80
2023/06/01 10:42:43;;;;;;;11.45;6.13;;;20.10;62.20;;;;;;5112515;28;20097;-80
2023/06/01 10:45:40;;;;;;;10.38;5.20;;;20.10;62.10;;;;;;5115157;28;20479;-81
2023/06/01 10:48:11;;;;;;;13.20;5.55;;;20.30;61.30;;;;;;5116692;28;20092;-79
2023/06/01 10:50:38;;;;;;;12.30;5.75;;;20.30;61.50;;;;;;5116684;28;20021;-81
2023/06/01 10:53:24;;;;;;;9.32;5.35;;;20.30;61.90;;;;;;5117595;28;20020;-80
2023/06/01 10:56:18;;;;;;;8.85;5.43;;;20.50;61.20;;;;;;5117517;28;20023;-80
2023/06/01 10:58:43;;;;;;;12.95;6.47;;;20.60;61.10;;;;;;5117476;28;20039;-80
2023/06/01 11:01:17;;;;;;;10.52;5.63;;;20.60;60.70;;;;;;5116485;28;20091;-80
2023/06/01 11:03:49;;;;;;;11.25;5.85;;;20.60;61.00;;;;;;5117462;28;20024;-81
2023/06/01 11:06:45;;;;;;;11.75;5.82;;;20.70;59.90;;;;;;5117496;28;20020;-80
2023/06/01 11:09:12;;;;;;;11.18;5.70;;;20.70;59.50;;;;;;5095293;28;20445;-80
2023/06/01 11:11:58;;;;;;;11.57;4.75;;;20.70;59.20;;;;;;5116209;28;20032;-81
2023/06/01 11:14:25;;;;;;;9.27;5.35;;;20.80;57.60;;;;;;5116248;28;20028;-80
2023/06/01 11:16:52;;;;;;;11.15;5.40;;;20.80;59.00;;;;;;5117194;28;20016;-80
2023/06/01 11:19:25;;;;;;;10.75;5.18;;;20.90;58.40;;;;;;5116926;28;20048;-80
2023/06/01 11:22:04;;;;;;;10.15;5.22;;;20.90;59.40;;;;;;5117141;28;20035;-80
2023/06/01 11:24:35;;;;;;;8.27;4.45;;;21.10;59.50;;;;;;5116103;28;20016;-79
2023/06/01 11:27:10;;;;;;;7.78;4.43;;;21.20;59.60;;;;;;5115930;28;20094;-79
2023/06/01 11:29:36;;;;;;;10.93;4.90;;;21.20;59.40;;;;;;5115937;28;20081;-80
2023/06/01 11:32:05;;;;;;;12.85;5.30;;;21.30;59.00;;;;;;5115889;28;20020;-80
2023/06/01 11:34:41;;;;;;;13.70;4.97;;;21.20;58.50;;;;;;5115746;28;20417;-81
2023/06/01 11:37:18;;;;;;;10.45;5.25;;;21.20;58.50;;;;;;5115873;28;20031;-81
2023/06/01 11:39:47;;;;;;;10.73;5.53;;;21.30;58.70;;;;;;5115891;28;20466;-80
2023/06/01 11:42:15;;;;;;;9.75;5.30;;;21.30;56.80;;;;;;5116696;28;20028;-80
2023/06/01 11:44:43;;;;;;;10.43;4.70;;;21.20;55.70;;;;;;5115602;28;20024;-80
2023/06/01 11:47:10;;;;;;;9.55;4.88;;;21.20;58.30;;;;;;5116499;28;20076;-79
2023/06/01 11:49:47;;;;;;;10.68;5.03;;;21.30;57.90;;;;;;5098806;28;20054;-79
2023/06/01 11:52:13;;;;;;;9.45;4.72;;;21.40;56.80;;;;;;5115541;28;20571;-80
2023/06/01 11:54:39;;;;;;;10.77;4.95;;;21.50;57.40;;;;;;5115483;28;20020;-80
2023/06/01 11:57:05;;;;;;;9.60;4.75;;;21.60;57.00;;;;;;5114228;28;20036;-80
2023/06/01 11:59:38;;;;;;;8.75;4.75;;;21.70;57.30;;;;;;5115422;28;20027;-80
2023/06/01 12:02:20;;;;;;;8.15;4.05;;;21.80;57.60;;;;;;5115190;28;20043;-80
2023/06/01 12:05:08;;;;;;;10.27;4.97;;;22.00;57.50;;;;;;5115513;28;20028;-80
2023/06/01 12:07:46;;;;;;;8.05;4.70;;;22.20;57.00;;;;;;5116325;28;20024;-80
2023/06/01 12:10:16;;;;;;;8.85;4.40;;;22.20;56.80;;;;;;5116164;28;20017;-80
2023/06/01 12:12:43;;;;;;;13.32;4.40;;;22.20;55.30;;;;;;5116175;28;20094;-80
2023/06/01 12:15:17;;;;;;;8.02;4.55;;;22.30;54.80;;;;;;5098067;28;20017;-80
2023/06/01 12:17:53;;;;;;;9.98;4.47;;;22.30;55.10;;;;;;5114911;28;20052;-79
2023/06/01 12:20:31;;;;;;;8.27;4.60;;;22.50;55.40;;;;;;5116092;28;20038;-80
2023/06/01 12:22:58;;;;;;;7.50;5.07;;;22.50;54.70;;;;;;5115909;28;20095;-81
2023/06/01 12:25:25;;;;;;;11.60;4.20;;;22.50;54.40;;;;;;5114832;28;20024;-79
2023/06/01 12:28:07;;;;;;;6.82;3.95;;;22.60;53.50;;;;;;5115776;28;20459;-80
2023/06/01 12:30:33;;;;;;;7.57;4.20;;;22.60;53.10;;;;;;5114843;28;20097;-80
2023/06/01 12:33:00;;;;;;;6.50;3.60;;;22.60;53.70;;;;;;5115695;28;20027;-80
2023/06/01 12:35:26;;;;;;;6.90;3.80;;;22.60;53.10;;;;;;5115553;28;20020;-80
2023/06/01 12:38:03;;;;;;;6.97;3.72;;;22.70;53.70;;;;;;5115624;28;20092;-80
2023/06/01 12:40:29;;;;;;;8.32;4.00;;;22.70;52.30;;;;;;5115595;28;20028;-80
2023/06/01 12:42:55;;;;;;;7.45;3.70;;;22.70;52.60;;;;;;5114698;28;20051;-80
2023/06/01 12:45:20;;;;;;;7.15;3.80;;;22.80;51.90;;;;;;5115550;28;20024;-80